Almo, ID

8:40 PM MDT on July 28, 2015 (GMT -0600)
Kenyon | | Change Station
CLOSE
Current Station
Personal Weather Station
Location: Burley, ID
Elevation: 4278 ft
Nearby Weather Stations
Active Advisory: Special Statement Active Notice: Record Report

Elev 4278 ft 42.43 °N, 113.86 °W | Updated 8 seconds ago

Clear
Clear
68.9 °F
Feels Like 68.9 °F
N
0.0
Wind Variable Wind from North
Gusts 0.0 mph

Today
High -- | Low -- °F
--% Chance of Precip.
Yesterday
High -- | Low -- °F
Precip. -- in
6:23 AM 8:57 PM
Waxing Gibbous, 93% visible
Pressure 30.15 in
Visibility 10.0 miles
Clouds Clear
Dew Point 14 °F
Humidity 12%
Rainfall 0.00 in
Snow Depth Not available.
UV 0.0 out of 12
Pollen 4.70 out of 12
Air Quality Not available.
Flu Activity Not available.
METAR KBYI 290153Z AUTO 01006KT 10SM CLR 21/M01 A3023 RMK AO2 SLP208 T02111011

More Conditions Fewer Conditions

Pressure 30.15 in
Visibility 10.0 miles
Clouds Clear
Dew Point 14 °F
Humidity 12%
Rainfall 0.00 in
Snow Depth Not available.
UV 0.0 out of 12
Pollen 4.70 out of 12
Air Quality Not available.
Flu Activity Not available.
METAR KBYI 290153Z AUTO 01006KT 10SM CLR 21/M01 A3023 RMK AO2 SLP208 T02111011

More Conditions Fewer Conditions

10-Day Weather Forecast

×

Almanac

Astronomy

Jul. 28, 2015 Rise Set
Actual Time
Civil Twilight
Nautical Twilight
Astronomical Twilight
Moon
Length of Visible Light
Length of Day
Tomorrow will be .
, % of the Moon is Illuminated

Today's Extremes

State Highs State Lows

Community

WunderPhotos

Upload Photos

1,842,013 photos uploaded!

WunderBlogs® & News

Nearby

Air Quality

  Air Quality AQ Index Pollutant
Not available.

Snow Depth

Station Depth Elevation

Earthquake Activity

City Distance Mag. Time & Date
Minimum magnitude displayed is 2.5.

Coastal Water Temperatures

Place Temperature

Stations

Nearby Weather Stations

Station Location Temp. Windchill Dew Point Humidity Wind Precip. Elev Updated Type
                   
Special Statement
Statement as of 2:20 PM MDT on July 28, 2015

... Freezing conditions tonight...

Mountain Valley locations will see freezing conditions tonight.
Individuals who have plants... pets or livestock that are sensitive
to freezing temperatures should take precautions to protect them
tonight.



220 PM MDT Tue Jul 28 2015

... Freezing conditions tonight...

Mountain Valley locations will see freezing conditions tonight.
Individuals who have plants... pets or livestock that are sensitive
to freezing temperatures should take precautions to protect them
tonight.



220 PM MDT Tue Jul 28 2015

... Freezing conditions tonight...

Mountain Valley locations will see freezing conditions tonight.
Individuals who have plants... pets or livestock that are sensitive
to freezing temperatures should take precautions to protect them
tonight.